Time;durP1;ratioP1;P1;durP2;ratioP2;P2;SDS_P1;SDS_P2;PMS_P1;PMS_P2;Temp;Humidity;BMP_temperature;BMP_pressure;BME280_temperature;BME280_humidity;BME280_pressure;Samples;Min_cycle;Max_cycle;Signal;HPM_P1;HPM_P2
2021/05/31 00:02:02;;;;;;;1.88;1.38;;;;;;;;;;5050648;28;20036;-67
2021/05/31 00:04:30;;;;;;;1.80;1.70;;;;;;;;;;5049883;28;20039;-67
2021/05/31 00:06:58;;;;;;;2.65;2.28;;;;;;;;;;5050228;28;20036;-67
2021/05/31 00:09:24;;;;;;;2.25;2.10;;;;;;;;;;5048183;28;20036;-67
2021/05/31 00:11:51;;;;;;;1.70;1.60;;;;;;;;;;5049792;28;20037;-67
2021/05/31 00:14:17;;;;;;;1.48;1.38;;;;;;;;;;5050807;28;20021;-67
2021/05/31 00:16:43;;;;;;;1.77;1.23;;;;;;;;;;5049916;28;20029;-67
2021/05/31 00:19:10;;;;;;;1.40;1.35;;;;;;;;;;5049448;28;20076;-67
2021/05/31 00:21:36;;;;;;;2.03;1.92;;;;;;;;;;5049693;28;20108;-67
2021/05/31 00:24:03;;;;;;;1.42;1.35;;;;;;;;;;5050340;28;20442;-67
2021/05/31 00:26:29;;;;;;;1.67;1.58;;;;;;;;;;5049947;28;20028;-67
2021/05/31 00:28:55;;;;;;;1.73;1.63;;;;;;;;;;5048552;28;20132;-68
2021/05/31 00:31:21;;;;;;;1.42;1.33;;;;;;;;;;5049784;28;20029;-67
2021/05/31 00:33:47;;;;;;;1.92;1.83;;;;;;;;;;5049902;28;20033;-68
2021/05/31 00:36:14;;;;;;;2.38;2.20;;;;;;;;;;5050027;28;20021;-67
2021/05/31 00:38:40;;;;;;;2.80;1.75;;;;;;;;;;5048291;28;20028;-67
2021/05/31 00:41:07;;;;;;;1.58;1.48;;;;;;;;;;5048513;28;20135;-67
2021/05/31 00:43:34;;;;;;;1.95;1.83;;;;;;;;;;5049239;28;20051;-67
2021/05/31 00:46:09;;;;;;;2.65;1.33;;;;;;;;;;5049202;28;20391;-67
2021/05/31 00:48:36;;;;;;;2.97;2.00;;;;;;;;;;5048132;28;20174;-67
2021/05/31 00:51:06;;;;;;;1.55;1.45;;;;;;;;;;5049409;28;20102;-67
2021/05/31 00:53:33;;;;;;;1.40;1.30;;;;;;;;;;5049011;28;20020;-68
2021/05/31 00:55:59;;;;;;;1.73;1.42;;;;;;;;;;5049153;28;20025;-68
2021/05/31 00:58:29;;;;;;;1.88;1.70;;;;;;;;;;5048426;28;20415;-67
2021/05/31 01:00:59;;;;;;;1.48;1.38;;;;;;;;;;5048731;28;20472;-67
2021/05/31 01:03:25;;;;;;;1.60;1.50;;;;;;;;;;5049074;28;20036;-67
2021/05/31 01:05:53;;;;;;;3.00;2.22;;;;;;;;;;5049189;28;20198;-67
2021/05/31 01:08:27;;;;;;;1.33;1.17;;;;;;;;;;5048150;28;20031;-67
2021/05/31 01:11:00;;;;;;;2.30;2.10;;;;;;;;;;5048090;28;20032;-68
2021/05/31 01:13:41;;;;;;;1.77;1.65;;;;;;;;;;5048741;28;20029;-68
2021/05/31 01:16:13;;;;;;;1.23;1.13;;;;;;;;;;5048924;28;20063;-67
2021/05/31 01:18:40;;;;;;;2.08;1.83;;;;;;;;;;5047666;28;20075;-67
2021/05/31 01:21:10;;;;;;;2.13;2.00;;;;;;;;;;5048845;28;20032;-68
2021/05/31 01:23:37;;;;;;;1.50;1.40;;;;;;;;;;5048018;28;20025;-68
2021/05/31 01:26:09;;;;;;;1.83;1.30;;;;;;;;;;5049310;28;20108;-67
2021/05/31 01:28:54;;;;;;;2.03;1.65;;;;;;;;;;5047232;28;20033;-67
2021/05/31 01:31:32;;;;;;;2.08;1.90;;;;;;;;;;5048396;28;20025;-67
2021/05/31 01:34:00;;;;;;;1.77;1.67;;;;;;;;;;5049320;28;20086;-68
2021/05/31 01:36:27;;;;;;;1.65;1.55;;;;;;;;;;5048301;28;20025;-67
2021/05/31 01:38:53;;;;;;;1.55;1.45;;;;;;;;;;5048071;28;20571;-67
2021/05/31 01:41:20;;;;;;;1.70;1.60;;;;;;;;;;5047142;28;20041;-67
2021/05/31 01:43:47;;;;;;;1.50;1.40;;;;;;;;;;5048797;28;20045;-67
2021/05/31 01:46:14;;;;;;;1.55;1.45;;;;;;;;;;5048340;28;20029;-67
2021/05/31 01:48:40;;;;;;;2.17;2.08;;;;;;;;;;5047394;28;20025;-67
2021/05/31 01:51:07;;;;;;;1.58;1.48;;;;;;;;;;5048029;28;20491;-67
2021/05/31 01:53:34;;;;;;;2.13;1.95;;;;;;;;;;5048079;28;20021;-67
2021/05/31 01:56:00;;;;;;;1.88;1.52;;;;;;;;;;5048693;28;20423;-67
2021/05/31 01:58:26;;;;;;;2.13;2.03;;;;;;;;;;5046008;28;20096;-67
2021/05/31 02:00:53;;;;;;;2.05;1.95;;;;;;;;;;5048133;28;20017;-67
2021/05/31 02:03:19;;;;;;;2.15;1.95;;;;;;;;;;5048369;28;20032;-67
2021/05/31 02:05:45;;;;;;;1.65;1.55;;;;;;;;;;5047669;28;20033;-67
2021/05/31 02:08:12;;;;;;;1.65;1.55;;;;;;;;;;5047521;28;20064;-67
2021/05/31 02:10:38;;;;;;;1.58;1.48;;;;;;;;;;5046237;28;20025;-68
2021/05/31 02:13:04;;;;;;;1.17;1.17;;;;;;;;;;5047998;28;20581;-67
2021/05/31 02:15:30;;;;;;;1.77;1.67;;;;;;;;;;5047364;28;20036;-67
2021/05/31 02:18:15;;;;;;;2.13;1.88;;;;;;;;;;5048007;28;20102;-67
2021/05/31 02:20:42;;;;;;;1.92;1.83;;;;;;;;;;5046965;28;20054;-67
2021/05/31 02:23:08;;;;;;;1.65;1.55;;;;;;;;;;5047997;28;20025;-67
2021/05/31 02:25:35;;;;;;;1.23;1.13;;;;;;;;;;5047434;28;20491;-67
2021/05/31 02:28:01;;;;;;;1.90;1.80;;;;;;;;;;5047151;28;20033;-67
2021/05/31 02:30:29;;;;;;;1.40;1.30;;;;;;;;;;5046944;28;20076;-67
2021/05/31 02:32:57;;;;;;;2.25;1.60;;;;;;;;;;5048035;28;20526;-67
2021/05/31 02:35:25;;;;;;;3.38;1.42;;;;;;;;;;5047907;28;20060;-67
2021/05/31 02:37:52;;;;;;;1.50;1.40;;;;;;;;;;5047724;28;20021;-67
2021/05/31 02:40:18;;;;;;;1.83;1.73;;;;;;;;;;5046130;28;20431;-67
2021/05/31 02:42:46;;;;;;;1.95;1.75;;;;;;;;;;5047448;28;20123;-67
2021/05/31 02:45:13;;;;;;;1.65;1.55;;;;;;;;;;5048224;28;20036;-67
2021/05/31 02:47:39;;;;;;;1.45;1.25;;;;;;;;;;5047120;28;20112;-67
2021/05/31 02:50:06;;;;;;;2.17;1.55;;;;;;;;;;5047388;28;20036;-68
2021/05/31 02:52:32;;;;;;;1.83;1.73;;;;;;;;;;5047339;28;20438;-67
2021/05/31 02:54:58;;;;;;;2.30;2.13;;;;;;;;;;5046721;28;20372;-67
2021/05/31 02:57:24;;;;;;;2.50;1.63;;;;;;;;;;5047437;28;20470;-67
2021/05/31 02:59:52;;;;;;;1.75;1.65;;;;;;;;;;5046815;28;20399;-67
2021/05/31 03:02:18;;;;;;;1.63;1.52;;;;;;;;;;5047729;28;20029;-67
2021/05/31 03:04:45;;;;;;;1.30;1.20;;;;;;;;;;5047215;28;20152;-67
2021/05/31 03:07:11;;;;;;;2.25;2.15;;;;;;;;;;5047879;28;20537;-67
2021/05/31 03:09:37;;;;;;;1.33;1.23;;;;;;;;;;5047017;28;20055;-67
2021/05/31 03:12:03;;;;;;;1.63;1.52;;;;;;;;;;5051381;28;20032;-68
2021/05/31 03:14:29;;;;;;;1.40;1.30;;;;;;;;;;5051133;28;20530;-67
2021/05/31 03:16:55;;;;;;;1.90;1.73;;;;;;;;;;5051256;28;20408;-67
2021/05/31 03:19:21;;;;;;;1.55;1.40;;;;;;;;;;5050928;28;20056;-67
2021/05/31 03:21:47;;;;;;;1.88;1.77;;;;;;;;;;5050984;28;20033;-67
2021/05/31 03:24:13;;;;;;;1.48;1.38;;;;;;;;;;5051410;28;20029;-67
2021/05/31 03:26:39;;;;;;;2.00;1.90;;;;;;;;;;5050501;28;20053;-67
2021/05/31 03:29:05;;;;;;;2.63;2.13;;;;;;;;;;5050236;28;20033;-68
2021/05/31 03:31:31;;;;;;;2.03;1.88;;;;;;;;;;5050098;28;20049;-68
2021/05/31 03:33:57;;;;;;;1.42;1.33;;;;;;;;;;5051417;28;20028;-67
2021/05/31 03:36:23;;;;;;;1.52;1.42;;;;;;;;;;5050724;28;20399;-67
2021/05/31 03:38:50;;;;;;;1.80;1.70;;;;;;;;;;5050252;28;20127;-68
2021/05/31 03:41:16;;;;;;;2.15;2.05;;;;;;;;;;5049585;28;20561;-67
2021/05/31 03:43:42;;;;;;;1.90;1.80;;;;;;;;;;5050162;28;20052;-67
2021/05/31 03:46:08;;;;;;;2.75;1.98;;;;;;;;;;5050837;28;20509;-67
2021/05/31 03:48:34;;;;;;;2.05;1.80;;;;;;;;;;5049489;28;20029;-67
2021/05/31 03:51:10;;;;;;;2.10;2.00;;;;;;;;;;5050435;28;20025;-67
2021/05/31 03:53:38;;;;;;;1.90;1.80;;;;;;;;;;5050257;28;20024;-67
2021/05/31 03:56:04;;;;;;;1.80;1.70;;;;;;;;;;5050655;28;20033;-67
2021/05/31 03:58:30;;;;;;;2.08;1.98;;;;;;;;;;5048965;28;20530;-67
2021/05/31 04:00:57;;;;;;;1.80;1.70;;;;;;;;;;5050235;28;20182;-68
2021/05/31 04:03:23;;;;;;;1.95;1.85;;;;;;;;;;5050366;28;20491;-68
2021/05/31 04:06:17;;;;;;;1.80;1.70;;;;;;;;;;5050437;28;20033;-67
2021/05/31 04:11:39;;;;;;;1.60;1.50;;;;;;;;;;5049212;28;20090;-68
2021/05/31 04:14:07;;;;;;;1.73;1.63;;;;;;;;;;5050240;28;20017;-68
2021/05/31 04:16:33;;;;;;;1.58;1.48;;;;;;;;;;5049650;28;20029;-68
2021/05/31 04:19:00;;;;;;;1.50;1.40;;;;;;;;;;5049809;28;20056;-68
2021/05/31 04:21:26;;;;;;;1.40;1.35;;;;;;;;;;5048340;28;20028;-68
2021/05/31 04:23:52;;;;;;;3.08;2.25;;;;;;;;;;5049984;28;20079;-68
2021/05/31 04:26:18;;;;;;;1.70;1.60;;;;;;;;;;5050173;28;20029;-67
2021/05/31 04:28:45;;;;;;;1.60;1.50;;;;;;;;;;5048589;28;20033;-67
2021/05/31 04:31:11;;;;;;;2.03;1.92;;;;;;;;;;5049443;28;20082;-67
2021/05/31 04:33:37;;;;;;;1.95;1.85;;;;;;;;;;5049720;28;20025;-68
2021/05/31 04:36:03;;;;;;;1.77;1.67;;;;;;;;;;5049438;28;20036;-68
2021/05/31 04:38:29;;;;;;;1.90;1.80;;;;;;;;;;5048969;28;20032;-68
2021/05/31 04:40:56;;;;;;;1.38;1.38;;;;;;;;;;5048240;28;20053;-67
2021/05/31 04:43:22;;;;;;;2.35;2.15;;;;;;;;;;5049249;28;20060;-67
2021/05/31 04:45:48;;;;;;;1.67;1.58;;;;;;;;;;5049989;28;20124;-67
2021/05/31 04:48:14;;;;;;;2.17;2.08;;;;;;;;;;5049149;28;20025;-67
2021/05/31 04:50:40;;;;;;;2.05;1.95;;;;;;;;;;5048413;28;20028;-67
2021/05/31 04:53:06;;;;;;;2.20;2.00;;;;;;;;;;5049817;28;20228;-67
2021/05/31 04:55:34;;;;;;;2.40;2.20;;;;;;;;;;5048551;28;20535;-67
2021/05/31 04:58:01;;;;;;;1.95;1.85;;;;;;;;;;5048669;28;20119;-67
2021/05/31 05:00:27;;;;;;;1.95;1.75;;;;;;;;;;5048112;28;20040;-67
2021/05/31 05:02:53;;;;;;;2.78;2.58;;;;;;;;;;5049083;28;20384;-67
2021/05/31 05:05:19;;;;;;;1.85;1.75;;;;;;;;;;5049195;28;20040;-67
2021/05/31 05:07:46;;;;;;;1.40;1.33;;;;;;;;;;5048197;28;20033;-67
2021/05/31 05:10:17;;;;;;;1.58;1.48;;;;;;;;;;5047597;28;20074;-67
2021/05/31 05:12:43;;;;;;;2.10;2.00;;;;;;;;;;5048383;28;20036;-67
2021/05/31 05:15:10;;;;;;;1.98;1.77;;;;;;;;;;5049221;28;20025;-67
2021/05/31 05:17:36;;;;;;;1.83;1.73;;;;;;;;;;5047838;28;20547;-67
2021/05/31 05:20:03;;;;;;;2.13;1.92;;;;;;;;;;5047890;28;20454;-67
2021/05/31 05:22:29;;;;;;;1.85;1.75;;;;;;;;;;5048393;28;20025;-67
2021/05/31 05:24:55;;;;;;;1.52;1.45;;;;;;;;;;5048927;28;20029;-68
2021/05/31 05:27:21;;;;;;;1.75;1.65;;;;;;;;;;5048729;28;20024;-67
2021/05/31 05:29:47;;;;;;;2.33;2.20;;;;;;;;;;5047413;28;20113;-68
2021/05/31 05:32:13;;;;;;;2.35;2.17;;;;;;;;;;5048798;28;20080;-67
2021/05/31 05:34:39;;;;;;;1.48;1.20;;;;;;;;;;5048914;28;20024;-67
2021/05/31 05:37:12;;;;;;;1.88;1.77;;;;;;;;;;5048689;28;20398;-67
2021/05/31 05:49:47;;;;;;;2.17;2.08;;;;;;;;;;5047149;28;20086;-68
2021/05/31 05:52:14;;;;;;;2.55;2.03;;;;;;;;;;5039179;28;20803;-67
2021/05/31 05:54:40;;;;;;;2.58;2.30;;;;;;;;;;5028661;28;20021;-67
2021/05/31 05:57:06;;;;;;;5.85;3.50;;;;;;;;;;5044916;28;20021;-67
2021/05/31 05:59:32;;;;;;;2.97;2.78;;;;;;;;;;5045028;28;20025;-67
2021/05/31 06:01:58;;;;;;;4.63;3.13;;;;;;;;;;5047105;28;20033;-67
2021/05/31 06:04:24;;;;;;;3.70;3.08;;;;;;;;;;5040300;28;20129;-68
2021/05/31 06:06:51;;;;;;;4.80;4.28;;;;;;;;;;5040817;28;20017;-68
2021/05/31 06:09:17;;;;;;;3.65;3.45;;;;;;;;;;5041436;28;20033;-68
2021/05/31 06:11:44;;;;;;;4.65;4.05;;;;;;;;;;5044200;28;20033;-67
2021/05/31 06:14:10;;;;;;;3.30;2.75;;;;;;;;;;5032063;28;20403;-68
2021/05/31 06:16:37;;;;;;;5.40;3.72;;;;;;;;;;5043348;28;20090;-68
2021/05/31 06:19:03;;;;;;;6.40;3.53;;;;;;;;;;5046227;28;20021;-67
2021/05/31 06:21:30;;;;;;;4.53;3.50;;;;;;;;;;5045883;28;20085;-67
2021/05/31 06:23:59;;;;;;;8.07;5.15;;;;;;;;;;5041488;28;20045;-68
2021/05/31 06:26:25;;;;;;;6.65;6.00;;;;;;;;;;5039294;28;20037;-68
2021/05/31 06:28:51;;;;;;;6.43;5.53;;;;;;;;;;5041157;28;20589;-68
2021/05/31 06:31:19;;;;;;;10.90;5.75;;;;;;;;;;5040945;28;20087;-68
2021/05/31 06:33:45;;;;;;;10.73;5.25;;;;;;;;;;5039811;28;20057;-67
2021/05/31 06:36:12;;;;;;;6.70;4.03;;;;;;;;;;5037174;28;20064;-68
2021/05/31 06:38:38;;;;;;;7.10;4.53;;;;;;;;;;5034617;28;20112;-68
2021/05/31 06:41:04;;;;;;;5.95;4.32;;;;;;;;;;5042503;28;20057;-67
2021/05/31 06:43:34;;;;;;;6.28;4.30;;;;;;;;;;5042535;28;20121;-68
2021/05/31 06:46:01;;;;;;;5.20;3.78;;;;;;;;;;5043451;28;20025;-67
2021/05/31 06:48:27;;;;;;;7.03;4.07;;;;;;;;;;5033788;28;20094;-67
2021/05/31 06:50:54;;;;;;;4.07;3.08;;;;;;;;;;5036357;28;20033;-67
2021/05/31 06:53:21;;;;;;;4.97;3.92;;;;;;;;;;5040772;28;20028;-67
2021/05/31 06:55:48;;;;;;;5.90;4.13;;;;;;;;;;5036668;28;20022;-67
2021/05/31 06:58:15;;;;;;;7.03;3.50;;;;;;;;;;5047583;28;20491;-66
2021/05/31 07:00:47;;;;;;;5.68;3.45;;;;;;;;;;5029856;28;20099;-66
2021/05/31 07:03:13;;;;;;;5.90;3.95;;;;;;;;;;5030698;28;20119;-67
2021/05/31 07:05:39;;;;;;;6.55;3.75;;;;;;;;;;5033612;28;20636;-67
2021/05/31 07:08:05;;;;;;;4.13;3.40;;;;;;;;;;5037149;28;20128;-67
2021/05/31 07:10:32;;;;;;;3.33;3.03;;;;;;;;;;5035083;28;20025;-67
2021/05/31 07:12:59;;;;;;;5.63;4.32;;;;;;;;;;5036959;28;20077;-67
2021/05/31 07:15:26;;;;;;;9.40;4.28;;;;;;;;;;5037853;28;20385;-67
2021/05/31 07:17:53;;;;;;;4.07;3.22;;;;;;;;;;5038875;28;20063;-67
2021/05/31 07:20:19;;;;;;;6.00;3.63;;;;;;;;;;5036797;28;20111;-67
2021/05/31 07:22:46;;;;;;;4.25;3.88;;;;;;;;;;5030143;28;20031;-67
2021/05/31 07:25:14;;;;;;;6.40;3.78;;;;;;;;;;5034240;28;20068;-67
2021/05/31 07:27:40;;;;;;;4.53;3.92;;;;;;;;;;5036049;28;20033;-66
2021/05/31 07:30:07;;;;;;;9.63;4.30;;;;;;;;;;5036369;28;20552;-67
2021/05/31 07:32:34;;;;;;;7.40;4.07;;;;;;;;;;5036883;28;20048;-67
2021/05/31 07:35:00;;;;;;;5.78;3.42;;;;;;;;;;5039073;28;20188;-67
2021/05/31 07:37:26;;;;;;;3.85;3.45;;;;;;;;;;5037296;28;20039;-67
2021/05/31 07:39:52;;;;;;;4.70;4.00;;;;;;;;;;5038006;28;20094;-67
2021/05/31 07:42:18;;;;;;;6.32;3.63;;;;;;;;;;5036208;28;20040;-67
2021/05/31 07:44:45;;;;;;;4.20;3.25;;;;;;;;;;5037933;28;20696;-67
2021/05/31 07:47:11;;;;;;;4.22;3.33;;;;;;;;;;5039693;28;20376;-67
2021/05/31 07:49:37;;;;;;;4.38;3.30;;;;;;;;;;5038456;28;20056;-67
2021/05/31 07:52:19;;;;;;;5.95;3.65;;;;;;;;;;5035472;28;20025;-67
2021/05/31 07:54:46;;;;;;;4.68;3.45;;;;;;;;;;5037027;28;20040;-67
2021/05/31 07:57:12;;;;;;;4.18;3.78;;;;;;;;;;5038156;28;20033;-67
2021/05/31 07:59:38;;;;;;;5.95;3.42;;;;;;;;;;5037940;28;20104;-67
2021/05/31 08:02:04;;;;;;;4.18;3.63;;;;;;;;;;5035677;28;20032;-67
2021/05/31 08:04:30;;;;;;;5.60;3.60;;;;;;;;;;5035894;28;20781;-68
2021/05/31 08:06:59;;;;;;;3.95;3.63;;;;;;;;;;5037200;28;20723;-66
2021/05/31 08:09:25;;;;;;;3.90;3.25;;;;;;;;;;5037362;28;20044;-66
2021/05/31 08:11:51;;;;;;;4.57;4.13;;;;;;;;;;5038999;28;20751;-67
2021/05/31 08:14:17;;;;;;;4.20;3.13;;;;;;;;;;5036185;28;20040;-67
2021/05/31 08:16:46;;;;;;;3.22;2.92;;;;;;;;;;5037361;28;20423;-67
2021/05/31 08:19:12;;;;;;;3.63;3.13;;;;;;;;;;5038769;28;20060;-66
2021/05/31 08:21:38;;;;;;;3.88;3.47;;;;;;;;;;5033499;28;20036;-67
2021/05/31 08:24:04;;;;;;;4.00;3.10;;;;;;;;;;5035135;28;20538;-66
2021/05/31 08:26:30;;;;;;;3.50;3.20;;;;;;;;;;5037272;28;20033;-66
2021/05/31 08:28:56;;;;;;;6.15;5.15;;;;;;;;;;5036984;28;20025;-66
2021/05/31 08:31:22;;;;;;;11.13;6.95;;;;;;;;;;5036808;28;20174;-67
2021/05/31 08:33:49;;;;;;;4.93;4.53;;;;;;;;;;5034529;28;20025;-67
2021/05/31 08:36:17;;;;;;;3.97;3.67;;;;;;;;;;5038262;28;20097;-66
2021/05/31 08:38:43;;;;;;;4.63;4.22;;;;;;;;;;5035983;28;20517;-66
2021/05/31 08:41:09;;;;;;;5.07;4.63;;;;;;;;;;5037310;28;20056;-66
2021/05/31 08:43:35;;;;;;;4.93;4.47;;;;;;;;;;5033363;28;20025;-66
2021/05/31 08:46:02;;;;;;;6.38;4.68;;;;;;;;;;5038626;28;20025;-66
2021/05/31 08:48:28;;;;;;;9.15;5.85;;;;;;;;;;5035206;28;20148;-67
2021/05/31 08:50:55;;;;;;;5.88;5.32;;;;;;;;;;5038006;28;20120;-67
2021/05/31 08:53:21;;;;;;;12.55;8.82;;;;;;;;;;5034124;28;20028;-66
2021/05/31 08:55:48;;;;;;;9.35;7.22;;;;;;;;;;5037333;28;20266;-72
2021/05/31 08:58:14;;;;;;;9.88;6.63;;;;;;;;;;5038008;28;20499;-67
2021/05/31 09:00:40;;;;;;;13.57;8.48;;;;;;;;;;5036880;28;20144;-66
2021/05/31 09:03:09;;;;;;;8.48;5.43;;;;;;;;;;5034424;28;20021;-67
2021/05/31 09:05:40;;;;;;;5.85;4.43;;;;;;;;;;5036955;28;20049;-66
2021/05/31 09:08:10;;;;;;;6.40;4.43;;;;;;;;;;5036044;28;20140;-68
2021/05/31 09:10:47;;;;;;;4.88;4.20;;;;;;;;;;5035887;28;20021;-67
2021/05/31 09:13:24;;;;;;;5.63;3.92;;;;;;;;;;5033416;28;20380;-69
2021/05/31 09:16:06;;;;;;;5.57;4.97;;;;;;;;;;5037002;28;20025;-66
2021/05/31 09:18:33;;;;;;;8.75;4.88;;;;;;;;;;5035695;28;20039;-68
2021/05/31 09:21:10;;;;;;;4.88;4.25;;;;;;;;;;5034074;28;20029;-65
2021/05/31 09:23:36;;;;;;;5.88;4.47;;;;;;;;;;5034340;28;20059;-66
2021/05/31 09:26:06;;;;;;;5.57;3.30;;;;;;;;;;5036832;28;20033;-66
2021/05/31 09:28:32;;;;;;;4.13;3.30;;;;;;;;;;5036363;28;20355;-69
2021/05/31 09:30:59;;;;;;;4.35;3.83;;;;;;;;;;5029673;28;20032;-66
2021/05/31 09:33:25;;;;;;;7.20;4.13;;;;;;;;;;5031287;28;20043;-68
2021/05/31 09:35:51;;;;;;;4.75;3.42;;;;;;;;;;5034161;28;20492;-67
2021/05/31 09:38:18;;;;;;;3.40;3.10;;;;;;;;;;5033579;28;20042;-67
2021/05/31 09:40:54;;;;;;;3.40;3.10;;;;;;;;;;5022572;28;20053;-67
2021/05/31 09:43:24;;;;;;;4.03;3.35;;;;;;;;;;5037240;28;20029;-67
2021/05/31 09:45:50;;;;;;;7.70;4.35;;;;;;;;;;5042865;28;20048;-67
2021/05/31 09:48:18;;;;;;;4.13;3.80;;;;;;;;;;5042816;28;20590;-67
2021/05/31 09:51:01;;;;;;;2.95;2.70;;;;;;;;;;5034122;28;20021;-67
2021/05/31 09:53:36;;;;;;;3.63;3.35;;;;;;;;;;5032911;28;20063;-67
2021/05/31 09:56:12;;;;;;;4.22;3.30;;;;;;;;;;5044556;28;20024;-67
2021/05/31 09:58:46;;;;;;;4.05;3.72;;;;;;;;;;5042176;28;20534;-67
2021/05/31 10:01:12;;;;;;;6.70;3.22;;;;;;;;;;5040008;28;20460;-67
2021/05/31 10:07:01;;;;;;;7.30;3.85;;;;;;;;;;5033154;28;20055;-72
2021/05/31 10:09:20;;;;;;;5.10;4.60;;;;;;;;;;5042472;28;20037;-67
2021/05/31 10:11:46;;;;;;;11.73;5.35;;;;;;;;;;5043905;28;20499;-67
2021/05/31 10:14:15;;;;;;;6.30;5.70;;;;;;;;;;5045012;28;20079;-66
2021/05/31 10:16:42;;;;;;;7.90;7.00;;;;;;;;;;5042560;28;20061;-66
2021/05/31 10:19:09;;;;;;;11.27;6.97;;;;;;;;;;5043220;28;20029;-66
2021/05/31 10:21:35;;;;;;;8.32;7.45;;;;;;;;;;5043379;28;20048;-67
2021/05/31 10:24:02;;;;;;;10.98;7.28;;;;;;;;;;5043878;28;20021;-67
2021/05/31 10:26:31;;;;;;;8.23;5.32;;;;;;;;;;5029158;28;20059;-67
2021/05/31 10:28:57;;;;;;;4.90;4.45;;;;;;;;;;5010979;28;20032;-66
2021/05/31 10:31:25;;;;;;;7.38;3.70;;;;;;;;;;5043742;28;20033;-66
2021/05/31 10:33:58;;;;;;;4.20;3.90;;;;;;;;;;5047398;28;20112;-66
2021/05/31 10:36:24;;;;;;;6.93;5.10;;;;;;;;;;5048642;28;20112;-66
2021/05/31 10:38:52;;;;;;;4.70;3.92;;;;;;;;;;5047892;28;20037;-66
2021/05/31 10:41:20;;;;;;;4.88;3.60;;;;;;;;;;5047421;28;20131;-66
2021/05/31 10:43:47;;;;;;;6.80;3.80;;;;;;;;;;5048285;28;20020;-66
2021/05/31 10:46:15;;;;;;;7.20;4.05;;;;;;;;;;5047627;28;20033;-66
2021/05/31 10:48:45;;;;;;;4.32;3.67;;;;;;;;;;5048722;28;20077;-66
2021/05/31 10:51:16;;;;;;;5.15;3.53;;;;;;;;;;5047277;28;20033;-66
2021/05/31 10:53:42;;;;;;;3.70;3.40;;;;;;;;;;5048991;28;20140;-66
2021/05/31 10:56:10;;;;;;;3.92;3.63;;;;;;;;;;5047595;28;20033;-66
2021/05/31 10:58:38;;;;;;;4.30;3.15;;;;;;;;;;5046165;28;20025;-66
2021/05/31 11:01:07;;;;;;;4.38;3.10;;;;;;;;;;5047597;28;20029;-66
2021/05/31 11:03:44;;;;;;;4.25;3.85;;;;;;;;;;5048364;28;20408;-66
2021/05/31 11:06:14;;;;;;;4.45;3.15;;;;;;;;;;5047439;28;20210;-66
2021/05/31 11:08:47;;;;;;;3.28;2.97;;;;;;;;;;5048251;28;20032;-66
2021/05/31 11:11:13;;;;;;;;;;;;;;;;;;5047556;28;20040;-66
2021/05/31 11:13:49;;;;;;;3.38;2.15;;;;;;;;;;5048475;28;20106;-66
2021/05/31 11:16:18;;;;;;;2.97;2.65;;;;;;;;;;5048101;28;20129;-66
2021/05/31 11:18:47;;;;;;;5.28;3.67;;;;;;;;;;5048393;28;20037;-66
2021/05/31 11:21:27;;;;;;;5.40;3.33;;;;;;;;;;5047259;28;20479;-66
2021/05/31 11:24:01;;;;;;;3.80;2.75;;;;;;;;;;5047660;28;20087;-67
2021/05/31 11:26:32;;;;;;;5.30;2.53;;;;;;;;;;5048644;28;20041;-66
2021/05/31 11:28:58;;;;;;;3.53;2.50;;;;;;;;;;5044786;28;20025;-66
2021/05/31 11:31:25;;;;;;;4.13;3.80;;;;;;;;;;5047997;28;20025;-66
2021/05/31 11:33:54;;;;;;;3.63;2.97;;;;;;;;;;5050751;28;20041;-67
2021/05/31 11:36:29;;;;;;;3.13;2.72;;;;;;;;;;5051527;28;20033;-67
2021/05/31 11:38:56;;;;;;;3.50;3.20;;;;;;;;;;5048988;28;20463;-67
2021/05/31 11:41:32;;;;;;;3.40;3.05;;;;;;;;;;5049701;28;20045;-69
2021/05/31 11:43:58;;;;;;;2.50;2.30;;;;;;;;;;5052330;28;20029;-67
2021/05/31 11:46:24;;;;;;;7.03;3.00;;;;;;;;;;5051346;28;20033;-68
2021/05/31 11:48:50;;;;;;;7.10;2.97;;;;;;;;;;5047087;28;20025;-67
2021/05/31 11:51:17;;;;;;;2.92;2.58;;;;;;;;;;5038710;28;20017;-67
2021/05/31 11:53:47;;;;;;;3.13;2.72;;;;;;;;;;5043238;28;20060;-66
2021/05/31 11:56:14;;;;;;;3.00;2.42;;;;;;;;;;5044166;28;20450;-67
2021/05/31 11:58:41;;;;;;;2.38;2.17;;;;;;;;;;5044479;28;20476;-66
2021/05/31 12:01:08;;;;;;;3.75;2.97;;;;;;;;;;5040517;28;20126;-67
2021/05/31 12:03:34;;;;;;;2.30;2.10;;;;;;;;;;5041022;28;20033;-66
2021/05/31 12:06:10;;;;;;;4.30;2.42;;;;;;;;;;5032037;28;20168;-67
2021/05/31 12:08:36;;;;;;;5.55;3.03;;;;;;;;;;5040174;28;20037;-66
2021/05/31 12:11:04;;;;;;;5.15;2.90;;;;;;;;;;5040282;28;20461;-66
2021/05/31 12:13:33;;;;;;;4.45;2.63;;;;;;;;;;5042107;28;20035;-67
2021/05/31 12:15:59;;;;;;;3.33;3.03;;;;;;;;;;5042853;28;20107;-67
2021/05/31 12:18:27;;;;;;;3.17;2.00;;;;;;;;;;5044303;28;20056;-66
2021/05/31 12:20:57;;;;;;;5.93;3.20;;;;;;;;;;5040521;28;20033;-66
2021/05/31 12:23:24;;;;;;;3.05;2.72;;;;;;;;;;5043349;28;20032;-66
2021/05/31 12:25:51;;;;;;;6.95;3.63;;;;;;;;;;5043465;28;20111;-66
2021/05/31 12:28:18;;;;;;;5.35;2.88;;;;;;;;;;5043467;28;20021;-66
2021/05/31 12:30:49;;;;;;;4.25;2.33;;;;;;;;;;5043511;28;20112;-66
2021/05/31 12:33:15;;;;;;;3.42;2.67;;;;;;;;;;5040622;28;20752;-66
2021/05/31 12:35:45;;;;;;;7.57;3.50;;;;;;;;;;5044285;28;20032;-66
2021/05/31 12:38:11;;;;;;;2.72;2.50;;;;;;;;;;5043935;28;20037;-66
2021/05/31 12:40:40;;;;;;;2.92;2.00;;;;;;;;;;5043059;28;20081;-68
2021/05/31 12:43:08;;;;;;;3.20;2.10;;;;;;;;;;5038702;28;20625;-69
2021/05/31 12:45:40;;;;;;;2.38;2.20;;;;;;;;;;5043287;28;20044;-66
2021/05/31 12:48:12;;;;;;;5.78;2.55;;;;;;;;;;5041235;28;21259;-66
2021/05/31 12:50:38;;;;;;;4.93;2.13;;;;;;;;;;5043588;28;20376;-66
2021/05/31 12:53:05;;;;;;;3.70;2.55;;;;;;;;;;5039871;28;20476;-66
2021/05/31 12:55:31;;;;;;;6.22;2.72;;;;;;;;;;5043770;28;20036;-66
2021/05/31 12:57:58;;;;;;;2.35;2.17;;;;;;;;;;5042059;28;20387;-66
2021/05/31 13:00:25;;;;;;;2.55;2.35;;;;;;;;;;5042381;28;20029;-66
2021/05/31 13:02:53;;;;;;;2.97;2.13;;;;;;;;;;5039545;28;20118;-64
2021/05/31 13:05:21;;;;;;;7.53;3.13;;;;;;;;;;5042842;28;20551;-65
2021/05/31 13:07:49;;;;;;;4.22;2.45;;;;;;;;;;5042140;28;20025;-66
2021/05/31 13:10:17;;;;;;;3.03;2.72;;;;;;;;;;5042279;28;20121;-66
2021/05/31 13:12:52;;;;;;;4.50;2.65;;;;;;;;;;5041393;28;20033;-66
2021/05/31 13:15:19;;;;;;;3.40;2.33;;;;;;;;;;5042602;28;20171;-66
2021/05/31 13:17:45;;;;;;;5.70;2.92;;;;;;;;;;5043393;28;20028;-66
2021/05/31 13:20:13;;;;;;;4.35;2.67;;;;;;;;;;5041502;28;20033;-66
2021/05/31 13:22:39;;;;;;;3.08;2.65;;;;;;;;;;5039115;28;20044;-66
2021/05/31 13:25:06;;;;;;;2.45;2.25;;;;;;;;;;5041282;28;20041;-66
2021/05/31 13:27:33;;;;;;;2.65;2.45;;;;;;;;;;5041772;28;20080;-66
2021/05/31 13:30:01;;;;;;;3.92;2.30;;;;;;;;;;5039791;28;20053;-66
2021/05/31 13:32:29;;;;;;;3.72;3.05;;;;;;;;;;5038930;28;20115;-66
2021/05/31 13:34:58;;;;;;;8.40;2.67;;;;;;;;;;5038125;28;20025;-66
2021/05/31 13:37:24;;;;;;;6.47;2.40;;;;;;;;;;5041159;28;20079;-66
2021/05/31 13:39:51;;;;;;;3.47;1.80;;;;;;;;;;5039240;28;20106;-66
2021/05/31 14:41:20;;;;;;;3.92;2.55;;;;;;;;;;5042196;23;20176;-82
2021/05/31 14:43:46;;;;;;;3.65;2.80;;;;;;;;;;5021175;28;20026;-83
2021/05/31 14:46:12;;;;;;;3.20;2.50;;;;;;;;;;5021641;28;20684;-83
2021/05/31 14:48:43;;;;;;;2.53;2.33;;;;;;;;;;5021251;28;20038;-83
2021/05/31 14:51:12;;;;;;;2.25;2.05;;;;;;;;;;5017881;28;20417;-83
2021/05/31 14:53:39;;;;;;;4.85;3.03;;;;;;;;;;5018450;28;20041;-82
2021/05/31 14:56:06;;;;;;;3.17;2.75;;;;;;;;;;5019644;28;20103;-83
2021/05/31 14:58:32;;;;;;;2.25;2.05;;;;;;;;;;5019203;28;20033;-83
2021/05/31 15:01:00;;;;;;;2.83;2.30;;;;;;;;;;5018898;28;20044;-84
2021/05/31 15:03:27;;;;;;;3.83;2.60;;;;;;;;;;5015046;28;20033;-82
2021/05/31 15:05:54;;;;;;;2.63;2.42;;;;;;;;;;5019949;28;20044;-82
2021/05/31 15:08:20;;;;;;;4.60;2.20;;;;;;;;;;5021731;28;20120;-83
2021/05/31 15:10:48;;;;;;;3.58;2.30;;;;;;;;;;5022583;28;20025;-83
2021/05/31 15:13:15;;;;;;;2.35;2.15;;;;;;;;;;5019158;28;20448;-84
2021/05/31 15:15:41;;;;;;;2.90;1.95;;;;;;;;;;5026618;28;20057;-84
2021/05/31 15:18:07;;;;;;;3.05;1.98;;;;;;;;;;5026095;28;20049;-85
2021/05/31 15:20:33;;;;;;;2.65;2.45;;;;;;;;;;5030239;28;20111;-84
2021/05/31 15:22:59;;;;;;;6.85;2.50;;;;;;;;;;5027958;28;20104;-84
2021/05/31 15:25:25;;;;;;;2.58;2.22;;;;;;;;;;5021371;28;20103;-86
2021/05/31 15:27:51;;;;;;;2.03;1.92;;;;;;;;;;5026394;28;20714;-85
2021/05/31 15:30:19;;;;;;;2.67;2.47;;;;;;;;;;5023371;28;20017;-83
2021/05/31 15:32:45;;;;;;;5.72;2.50;;;;;;;;;;5021865;28;20033;-85
2021/05/31 15:35:11;;;;;;;2.25;2.03;;;;;;;;;;5027439;28;20040;-85
2021/05/31 15:37:37;;;;;;;4.90;1.52;;;;;;;;;;5029401;28;20033;-85
2021/05/31 15:40:05;;;;;;;4.50;2.50;;;;;;;;;;5027228;28;20057;-86
2021/05/31 15:42:31;;;;;;;5.35;2.38;;;;;;;;;;5030051;28;20104;-85
2021/05/31 15:44:58;;;;;;;2.75;2.15;;;;;;;;;;5029318;28;20030;-84
2021/05/31 15:47:24;;;;;;;2.17;2.03;;;;;;;;;;5029326;28;20443;-84
2021/05/31 15:49:50;;;;;;;4.05;2.22;;;;;;;;;;5029245;28;20040;-83
2021/05/31 15:52:17;;;;;;;3.53;2.95;;;;;;;;;;5029398;28;20052;-82
2021/05/31 15:54:44;;;;;;;5.25;4.03;;;;;;;;;;5027903;28;20017;-83
2021/05/31 15:57:10;;;;;;;4.70;3.70;;;;;;;;;;5025815;28;20025;-83
2021/05/31 15:59:37;;;;;;;2.80;2.60;;;;;;;;;;5028606;28;20021;-83
2021/05/31 16:02:05;;;;;;;7.00;2.97;;;;;;;;;;5026749;28;20577;-83